Weather Melbourne :: Current Conditions and Historical Data

 
Daily Summary for February 01, 2015 Units:  Both    English   Metric
« Previous Day
Next Day »
Daily Weekly Monthly Yearly Custom
  Current: High: Low: Average:
Temperature: 55.2 °F /  12.9 °C 58.1 °F /  14.5 °C 55.2 °F /  12.9 °C 56.6 °F /  13.7 °C
Dew Point: 53.5 °F /  11.9 °C 55.8 °F /  13.2 °C 53.5 °F /  11.9 °C 54.7 °F /  12.6 °C
Humidity: 94 % 95 % 92 % 93 %
Wind Speed: 3.5 mph /  5.6 km/h 11.5 mph /  18.5 km/h - 4.5 mph /  7.2 km/h
Wind Gust: 3.5 mph /  5.6 km/h 11.5 mph /  18.5 km/h - -
Wind:SW - - SW
Pressure: 29.87 in /  1011.4 hPa 29.90 in /  1012.4 hPa 29.86 in /  1011.1 hPa -
Precipitation: 0.22 in /  5.59 mm      
Melbourne, Australia Weather Graphs
 
 
Melbourne, current snapshot. Courtesy of citylink.com.au
Weather Melbourne

Melbourne Weather Radar




Weather in Melbourne, AU
Hourly Data for February 01, 2015
Time Temperature Dew Point Pressure Wind Wind Speed Wind Gust Humidity Rainfall Rate (Hourly) solar Conditions
00:03 58.1 °F /  14.5 °C 55.8 °F /  13.2 °C 29.89 in /  1012.1 hPa SSW 6.9 mph /  11.1 km/h 6.9 mph /  11.1 km/h 92 % 0.01 in /  0.25 mm 0.0 W/m2 BKN
00:08 58.1 °F /  14.5 °C 55.8 °F /  13.2 °C 29.89 in /  1012.1 hPa SW 3.5 mph /  5.6 km/h 3.5 mph /  5.6 km/h 92 % 0.00 in /  0 mm 0.0 W/m2 BKN
00:13 58.0 °F /  14.4 °C 55.7 °F /  13.2 °C 29.90 in /  1012.4 hPa SSW 4.6 mph /  7.4 km/h 4.6 mph /  7.4 km/h 92 % 0.00 in /  0 mm 0.0 W/m2 BKN
00:18 58.0 °F /  14.4 °C 55.7 °F /  13.2 °C 29.90 in /  1012.4 hPa SSW 5.8 mph /  9.3 km/h 5.8 mph /  9.3 km/h 92 % 0.00 in /  0 mm 0.0 W/m2 BKN
00:23 57.9 °F /  14.4 °C 55.6 °F /  13.1 °C 29.89 in /  1012.1 hPa SSW 4.6 mph /  7.4 km/h 4.6 mph /  7.4 km/h 92 % 0.00 in /  0 mm 0.0 W/m2 BKN
00:28 58.0 °F /  14.4 °C 55.7 °F /  13.2 °C 29.89 in /  1012.1 hPa SSW 4.6 mph /  7.4 km/h 4.6 mph /  7.4 km/h 92 % 0.00 in /  0 mm 0.0 W/m2 BKN
00:33 57.9 °F /  14.4 °C 55.6 °F /  13.1 °C 29.89 in /  1012.1 hPa SSW 6.9 mph /  11.1 km/h 6.9 mph /  11.1 km/h 92 % 0.00 in /  0 mm 0.0 W/m2 BKN
00:38 57.9 °F /  14.4 °C 55.6 °F /  13.1 °C 29.89 in /  1012.1 hPa SW 6.9 mph /  11.1 km/h 6.9 mph /  11.1 km/h 92 % 0.00 in /  0 mm 0.0 W/m2 BKN
00:43 57.9 °F /  14.4 °C 55.6 °F /  13.1 °C 29.89 in /  1012.1 hPa SW 5.8 mph /  9.3 km/h 5.8 mph /  9.3 km/h 92 % 0.00 in /  0 mm 0.0 W/m2 BKN
00:48 57.9 °F /  14.4 °C 55.6 °F /  13.1 °C 29.89 in /  1012.1 hPa SW 11.5 mph /  18.5 km/h 11.5 mph /  18.5 km/h 92 % 0.01 in /  0.25 mm 0.0 W/m2 -DZ
00:53 57.8 °F /  14.3 °C 55.5 °F /  13.1 °C 29.89 in /  1012.1 hPa SW 3.5 mph /  5.6 km/h 3.5 mph /  5.6 km/h 92 % 0.01 in /  0.25 mm 0.0 W/m2 -DZ
00:58 57.8 °F /  14.3 °C 55.5 °F /  13.1 °C 29.89 in /  1012.1 hPa SSW 6.9 mph /  11.1 km/h 6.9 mph /  11.1 km/h 92 % 0.01 in /  0.25 mm 0.0 W/m2 -DZ
01:03 57.8 °F /  14.3 °C 55.5 °F /  13.1 °C 29.89 in /  1012.1 hPa SW 6.9 mph /  11.1 km/h 6.9 mph /  11.1 km/h 92 % 0.01 in /  0.25 mm 0.0 W/m2 -DZ
01:08 57.8 °F /  14.3 °C 55.5 °F /  13.1 °C 29.89 in /  1012.1 hPa SW 5.8 mph /  9.3 km/h 5.8 mph /  9.3 km/h 92 % 0.01 in /  0.25 mm 0.0 W/m2 -DZ
01:13 57.6 °F /  14.2 °C 55.6 °F /  13.1 °C 29.89 in /  1012.1 hPa SW 8.1 mph /  13 km/h 8.1 mph /  13 km/h 93 % 0.01 in /  0.25 mm 0.0 W/m2 -DZ
01:18 57.6 °F /  14.2 °C 55.6 °F /  13.1 °C 29.89 in /  1012.1 hPa SW 3.5 mph /  5.6 km/h 3.5 mph /  5.6 km/h 93 % 0.01 in /  0.25 mm 0.0 W/m2 BKN
01:23 57.5 °F /  14.2 °C 55.5 °F /  13.1 °C 29.89 in /  1012.1 hPa SW 3.5 mph /  5.6 km/h 3.5 mph /  5.6 km/h 93 % 0.01 in /  0.25 mm 0.0 W/m2 BKN
01:28 57.4 °F /  14.1 °C 55.4 °F /  13 °C 29.89 in /  1012.1 hPa SW 4.6 mph /  7.4 km/h 4.6 mph /  7.4 km/h 93 % 0.01 in /  0.25 mm 0.0 W/m2 BKN
01:33 57.4 °F /  14.1 °C 55.4 °F /  13 °C 29.89 in /  1012.1 hPa WSW 2.3 mph /  3.7 km/h 2.3 mph /  3.7 km/h 93 % 0.02 in /  0.51 mm 0.0 W/m2 RA
01:38 57.3 °F /  14.1 °C 55.3 °F /  12.9 °C 29.89 in /  1012.1 hPa SW 3.5 mph /  5.6 km/h 3.5 mph /  5.6 km/h 93 % 0.02 in /  0.51 mm 0.0 W/m2 BKN
01:43 57.3 °F /  14.1 °C 55.3 °F /  12.9 °C 29.89 in /  1012.1 hPa SSW 6.0 mph /  9.7 km/h 6.0 mph /  9.7 km/h 93 % 0.02 in /  0.51 mm 0.0 W/m2 BKN
01:48 57.3 °F /  14.1 °C 55.3 °F /  12.9 °C 29.89 in /  1012.1 hPa SW 3.5 mph /  5.6 km/h 3.5 mph /  5.6 km/h 93 % 0.02 in /  0.51 mm 0.0 W/m2 -DZ
01:53 57.2 °F /  14 °C 55.2 °F /  12.9 °C 29.88 in /  1011.7 hPa SW 3.5 mph /  5.6 km/h 3.5 mph /  5.6 km/h 93 % 0.03 in /  0.76 mm 0.0 W/m2 -DZ
01:58 57.1 °F /  13.9 °C 55.1 °F /  12.8 °C 29.88 in /  1011.7 hPa WSW 3.5 mph /  5.6 km/h 3.5 mph /  5.6 km/h 93 % 0.04 in /  1.02 mm 0.0 W/m2 -DZ
02:03 57.0 °F /  13.9 °C 55.0 °F /  12.8 °C 29.88 in /  1011.7 hPa WSW 5.8 mph /  9.3 km/h 5.8 mph /  9.3 km/h 93 % 0.05 in /  1.27 mm 0.0 W/m2 -DZ
02:08 57.0 °F /  13.9 °C 55.0 °F /  12.8 °C 29.88 in /  1011.7 hPa SW 3.5 mph /  5.6 km/h 3.5 mph /  5.6 km/h 93 % 0.05 in /  1.27 mm 0.0 W/m2 -DZ
02:13 57.0 °F /  13.9 °C 55.0 °F /  12.8 °C 29.88 in /  1011.7 hPa WSW 3.5 mph /  5.6 km/h 3.5 mph /  5.6 km/h 93 % 0.05 in /  1.27 mm 0.0 W/m2 -DZ
02:18 57.0 °F /  13.9 °C 55.0 °F /  12.8 °C 29.88 in /  1011.7 hPa SW 2.3 mph /  3.7 km/h 2.3 mph /  3.7 km/h 93 % 0.05 in /  1.27 mm 0.0 W/m2 -DZ
02:23 56.9 °F /  13.8 °C 54.9 °F /  12.7 °C 29.88 in /  1011.7 hPa SW 2.0 mph /  3.2 km/h 2.0 mph /  3.2 km/h 93 % 0.05 in /  1.27 mm 0.0 W/m2 -DZ
02:28 56.9 °F /  13.8 °C 54.9 °F /  12.7 °C 29.88 in /  1011.7 hPa SW 3.5 mph /  5.6 km/h 3.5 mph /  5.6 km/h 93 % 0.05 in /  1.27 mm 0.0 W/m2 -DZ
02:33 56.8 °F /  13.8 °C 54.8 °F /  12.7 °C 29.88 in /  1011.7 hPa SW 3.5 mph /  5.6 km/h 3.5 mph /  5.6 km/h 93 % 0.04 in /  1.02 mm 0.0 W/m2 BKN
02:38 56.6 °F /  13.7 °C 54.6 °F /  12.6 °C 29.88 in /  1011.7 hPa SW 3.0 mph /  4.8 km/h 3.0 mph /  4.8 km/h 93 % 0.04 in /  1.02 mm 0.0 W/m2 BKN
02:43 56.5 °F /  13.6 °C 54.5 °F /  12.5 °C 29.88 in /  1011.7 hPa WSW 3.5 mph /  5.6 km/h 3.5 mph /  5.6 km/h 93 % 0.04 in /  1.02 mm 0.0 W/m2 BKN
02:48 56.5 °F /  13.6 °C 54.5 °F /  12.5 °C 29.88 in /  1011.7 hPa SW 3.0 mph /  4.8 km/h 3.0 mph /  4.8 km/h 93 % 0.03 in /  0.76 mm 0.0 W/m2 BKN
02:53 56.4 °F /  13.6 °C 54.7 °F /  12.6 °C 29.88 in /  1011.7 hPa SSW 3.5 mph /  5.6 km/h 3.5 mph /  5.6 km/h 94 % 0.02 in /  0.51 mm 0.0 W/m2 BKN
02:58 56.4 °F /  13.6 °C 54.7 °F /  12.6 °C 29.88 in /  1011.7 hPa SW 4.6 mph /  7.4 km/h 4.6 mph /  7.4 km/h 94 % 0.01 in /  0.25 mm 0.0 W/m2 BKN
03:03 56.4 °F /  13.6 °C 54.7 °F /  12.6 °C 29.88 in /  1011.7 hPa SW 2.3 mph /  3.7 km/h 2.3 mph /  3.7 km/h 94 % 0.00 in /  0 mm 0.0 W/m2 BKN
03:08 56.3 °F /  13.5 °C 54.6 °F /  12.6 °C 29.88 in /  1011.7 hPa SW 2.3 mph /  3.7 km/h 2.3 mph /  3.7 km/h 94 % 0.00 in /  0 mm 0.0 W/m2 BKN
03:13 56.3 °F /  13.5 °C 54.6 °F /  12.6 °C 29.88 in /  1011.7 hPa SSW 3.5 mph /  5.6 km/h 3.5 mph /  5.6 km/h 94 % 0.00 in /  0 mm 0.0 W/m2 BKN
03:18 56.3 °F /  13.5 °C 54.6 °F /  12.6 °C 29.87 in /  1011.4 hPa SW 3.5 mph /  5.6 km/h 3.5 mph /  5.6 km/h 94 % 0.00 in /  0 mm 0.0 W/m2 BKN
03:23 56.4 °F /  13.6 °C 54.7 °F /  12.6 °C 29.87 in /  1011.4 hPa WSW 4.0 mph /  6.4 km/h 4.0 mph /  6.4 km/h 94 % 0.00 in /  0 mm 0.0 W/m2 BKN
03:28 56.4 °F /  13.6 °C 54.7 °F /  12.6 °C 29.87 in /  1011.4 hPa SW 4.6 mph /  7.4 km/h 4.6 mph /  7.4 km/h 94 % 0.00 in /  0 mm 0.0 W/m2 BKN
03:33 56.3 °F /  13.5 °C 54.6 °F /  12.6 °C 29.87 in /  1011.4 hPa SW 3.5 mph /  5.6 km/h 3.5 mph /  5.6 km/h 94 % 0.00 in /  0 mm 0.0 W/m2 BKN
03:38 56.3 °F /  13.5 °C 54.6 °F /  12.6 °C 29.87 in /  1011.4 hPa SW 3.5 mph /  5.6 km/h 3.5 mph /  5.6 km/h 94 % 0.00 in /  0 mm 0.0 W/m2 BKN
03:43 56.3 °F /  13.5 °C 54.6 °F /  12.6 °C 29.87 in /  1011.4 hPa SW 3.5 mph /  5.6 km/h 3.5 mph /  5.6 km/h 94 % 0.00 in /  0 mm 0.0 W/m2 BKN
03:48 56.3 °F /  13.5 °C 54.6 °F /  12.6 °C 29.87 in /  1011.4 hPa West 2.3 mph /  3.7 km/h 2.3 mph /  3.7 km/h 94 % 0.00 in /  0 mm 0.0 W/m2 BKN
03:53 56.3 °F /  13.5 °C 54.6 °F /  12.6 °C 29.87 in /  1011.4 hPa WSW 3.5 mph /  5.6 km/h 3.5 mph /  5.6 km/h 94 % 0.00 in /  0 mm 0.0 W/m2 BKN
03:58 56.3 °F /  13.5 °C 54.6 °F /  12.6 °C 29.86 in /  1011.1 hPa SW 6.9 mph /  11.1 km/h 6.9 mph /  11.1 km/h 94 % 0.00 in /  0 mm 0.0 W/m2 BKN
04:03 56.2 °F /  13.4 °C 54.5 °F /  12.5 °C 29.86 in /  1011.1 hPa SW 8.1 mph /  13 km/h 8.1 mph /  13 km/h 94 % 0.00 in /  0 mm 0.0 W/m2 -DZ
04:08 56.2 °F /  13.4 °C 54.5 °F /  12.5 °C 29.86 in /  1011.1 hPa WSW 4.0 mph /  6.4 km/h 4.0 mph /  6.4 km/h 94 % 0.00 in /  0 mm 0.0 W/m2 -DZ
04:13 56.2 °F /  13.4 °C 54.5 °F /  12.5 °C 29.86 in /  1011.1 hPa SW 3.5 mph /  5.6 km/h 3.5 mph /  5.6 km/h 94 % 0.00 in /  0 mm 0.0 W/m2 -DZ
04:18 56.0 °F /  13.3 °C 54.3 °F /  12.4 °C 29.87 in /  1011.4 hPa SW 10.4 mph /  16.7 km/h 10.4 mph /  16.7 km/h 94 % 0.01 in /  0.25 mm 0.0 W/m2 -DZ
04:23 56.0 °F /  13.3 °C 54.3 °F /  12.4 °C 29.87 in /  1011.4 hPa SSW 4.0 mph /  6.4 km/h 4.0 mph /  6.4 km/h 94 % 0.01 in /  0.25 mm 0.0 W/m2 -DZ
04:28 55.9 °F /  13.3 °C 54.2 °F /  12.3 °C 29.86 in /  1011.1 hPa WSW 5.8 mph /  9.3 km/h 5.8 mph /  9.3 km/h 94 % 0.01 in /  0.25 mm 0.0 W/m2 -DZ
04:33 55.8 °F /  13.2 °C 54.1 °F /  12.3 °C 29.86 in /  1011.1 hPa WSW 5.8 mph /  9.3 km/h 5.8 mph /  9.3 km/h 94 % 0.01 in /  0.25 mm 0.0 W/m2 -DZ
04:38 55.7 °F /  13.2 °C 54.0 °F /  12.2 °C 29.87 in /  1011.4 hPa SW 3.5 mph /  5.6 km/h 3.5 mph /  5.6 km/h 94 % 0.01 in /  0.25 mm 0.0 W/m2 -DZ
04:43 55.6 °F /  13.1 °C 53.9 °F /  12.2 °C 29.86 in /  1011.1 hPa WSW 4.6 mph /  7.4 km/h 4.6 mph /  7.4 km/h 94 % 0.01 in /  0.25 mm 0.0 W/m2 -DZ
04:48 55.6 °F /  13.1 °C 53.9 °F /  12.2 °C 29.86 in /  1011.1 hPa SW 3.5 mph /  5.6 km/h 3.5 mph /  5.6 km/h 94 % 0.01 in /  0.25 mm 0.0 W/m2 -DZ
04:53 55.6 °F /  13.1 °C 53.9 °F /  12.2 °C 29.86 in /  1011.1 hPa WSW 5.0 mph /  8 km/h 5.0 mph /  8 km/h 94 % 0.01 in /  0.25 mm 0.0 W/m2 -DZ
04:58 55.5 °F /  13.1 °C 53.8 °F /  12.1 °C 29.87 in /  1011.4 hPa WSW 8.1 mph /  13 km/h 8.1 mph /  13 km/h 94 % 0.01 in /  0.25 mm 0.0 W/m2 -DZ
05:03 55.4 °F /  13 °C 53.7 °F /  12.1 °C 29.86 in /  1011.1 hPa West 3.5 mph /  5.6 km/h 3.5 mph /  5.6 km/h 94 % 0.01 in /  0.25 mm 0.0 W/m2 BKN
05:08 55.3 °F /  12.9 °C 53.6 °F /  12 °C 29.87 in /  1011.4 hPa WSW 3.5 mph /  5.6 km/h 3.5 mph /  5.6 km/h 94 % 0.02 in /  0.51 mm 0.0 W/m2 RA
05:13 55.3 °F /  12.9 °C 53.6 °F /  12 °C 29.86 in /  1011.1 hPa SSW 3.5 mph /  5.6 km/h 3.5 mph /  5.6 km/h 94 % 0.02 in /  0.51 mm 0.0 W/m2 BKN
05:18 55.3 °F /  12.9 °C 53.6 °F /  12 °C 29.86 in /  1011.1 hPa WSW 3.5 mph /  5.6 km/h 3.5 mph /  5.6 km/h 94 % 0.02 in /  0.51 mm 0.0 W/m2 -DZ
05:23 55.3 °F /  12.9 °C 53.6 °F /  12 °C 29.86 in /  1011.1 hPa SW 5.0 mph /  8 km/h 5.0 mph /  8 km/h 94 % 0.02 in /  0.51 mm 0.0 W/m2 -DZ
05:28 55.3 °F /  12.9 °C 53.9 °F /  12.2 °C 29.86 in /  1011.1 hPa SW 3.5 mph /  5.6 km/h 3.5 mph /  5.6 km/h 95 % 0.04 in /  1.02 mm 0.0 W/m2 -DZ
05:33 55.3 °F /  12.9 °C 53.9 °F /  12.2 °C 29.86 in /  1011.1 hPa SW 2.3 mph /  3.7 km/h 2.3 mph /  3.7 km/h 95 % 0.04 in /  1.02 mm 0.0 W/m2 -DZ
05:38 55.3 °F /  12.9 °C 53.9 °F /  12.2 °C 29.87 in /  1011.4 hPa SW 3.5 mph /  5.6 km/h 3.5 mph /  5.6 km/h 95 % 0.05 in /  1.27 mm 0.0 W/m2 -DZ
05:43 55.3 °F /  12.9 °C 53.6 °F /  12 °C 29.87 in /  1011.4 hPa SW 3.5 mph /  5.6 km/h 3.5 mph /  5.6 km/h 94 % 0.05 in /  1.27 mm 0.0 W/m2 -DZ
05:48 55.3 °F /  12.9 °C 53.6 °F /  12 °C 29.87 in /  1011.4 hPa SSW 3.5 mph /  5.6 km/h 3.5 mph /  5.6 km/h 94 % 0.06 in /  1.52 mm 0.0 W/m2 -DZ
05:53 55.3 °F /  12.9 °C 53.6 °F /  12 °C 29.87 in /  1011.4 hPa WSW 3.5 mph /  5.6 km/h 3.5 mph /  5.6 km/h 94 % 0.07 in /  1.78 mm 0.0 W/m2 -DZ
05:58 55.3 °F /  12.9 °C 53.6 °F /  12 °C 29.86 in /  1011.1 hPa WSW 5.8 mph /  9.3 km/h 5.8 mph /  9.3 km/h 94 % 0.07 in /  1.78 mm 0.0 W/m2 -DZ
06:03 55.3 °F /  12.9 °C 53.6 °F /  12 °C 29.86 in /  1011.1 hPa SW 9.2 mph /  14.8 km/h 9.2 mph /  14.8 km/h 94 % 0.07 in /  1.78 mm 0.0 W/m2 BKN
06:08 55.2 °F /  12.9 °C 53.5 °F /  11.9 °C 29.87 in /  1011.4 hPa SW 3.5 mph /  5.6 km/h 3.5 mph /  5.6 km/h 94 % 0.06 in /  1.52 mm 0.0 W/m2 BKN
Melbourne Forecast
About Melbourne | City of Melbourne official website